sensor_id;sensor_type;location;lat;lon;timestamp;P1;durP1;ratioP1;P2;durP2;ratioP2
57217;SDS011;43078;52.972;6.482;2023-06-10T00:01:58;6.93;;;3.85;;
57217;SDS011;43078;52.972;6.482;2023-06-10T00:04:25;8.25;;;3.50;;
57217;SDS011;43078;52.972;6.482;2023-06-10T00:06:52;7.93;;;3.70;;
57217;SDS011;43078;52.972;6.482;2023-06-10T00:09:18;6.78;;;3.88;;
57217;SDS011;43078;52.972;6.482;2023-06-10T00:11:46;7.22;;;4.13;;
57217;SDS011;43078;52.972;6.482;2023-06-10T00:14:12;7.05;;;3.67;;
57217;SDS011;43078;52.972;6.482;2023-06-10T00:16:37;7.63;;;4.00;;
57217;SDS011;43078;52.972;6.482;2023-06-10T00:19:04;7.20;;;4.22;;
57217;SDS011;43078;52.972;6.482;2023-06-10T00:21:30;7.53;;;3.90;;
57217;SDS011;43078;52.972;6.482;2023-06-10T00:24:06;7.13;;;3.67;;
57217;SDS011;43078;52.972;6.482;2023-06-10T00:26:34;6.15;;;3.75;;
57217;SDS011;43078;52.972;6.482;2023-06-10T00:29:00;9.48;;;4.00;;
57217;SDS011;43078;52.972;6.482;2023-06-10T00:31:26;9.30;;;4.28;;
57217;SDS011;43078;52.972;6.482;2023-06-10T00:33:52;6.97;;;3.80;;
57217;SDS011;43078;52.972;6.482;2023-06-10T00:36:18;6.45;;;3.60;;
57217;SDS011;43078;52.972;6.482;2023-06-10T00:38:44;8.48;;;3.90;;
57217;SDS011;43078;52.972;6.482;2023-06-10T00:41:09;5.95;;;3.65;;
57217;SDS011;43078;52.972;6.482;2023-06-10T00:43:35;7.03;;;3.95;;
57217;SDS011;43078;52.972;6.482;2023-06-10T00:46:01;7.85;;;3.65;;
57217;SDS011;43078;52.972;6.482;2023-06-10T00:48:27;6.93;;;3.70;;
57217;SDS011;43078;52.972;6.482;2023-06-10T00:50:53;7.85;;;4.00;;
57217;SDS011;43078;52.972;6.482;2023-06-10T00:53:19;9.35;;;4.10;;
57217;SDS011;43078;52.972;6.482;2023-06-10T00:55:46;7.47;;;3.83;;
57217;SDS011;43078;52.972;6.482;2023-06-10T00:58:12;8.38;;;4.18;;
57217;SDS011;43078;52.972;6.482;2023-06-10T01:00:38;8.02;;;4.07;;
57217;SDS011;43078;52.972;6.482;2023-06-10T01:03:03;7.00;;;3.80;;
57217;SDS011;43078;52.972;6.482;2023-06-10T01:05:32;7.20;;;4.10;;
57217;SDS011;43078;52.972;6.482;2023-06-10T01:10:51;6.70;;;3.85;;
57217;SDS011;43078;52.972;6.482;2023-06-10T01:13:20;8.13;;;3.65;;
57217;SDS011;43078;52.972;6.482;2023-06-10T01:15:49;8.13;;;3.90;;
57217;SDS011;43078;52.972;6.482;2023-06-10T01:18:15;7.82;;;3.53;;
57217;SDS011;43078;52.972;6.482;2023-06-10T01:20:42;7.78;;;4.10;;
57217;SDS011;43078;52.972;6.482;2023-06-10T01:23:09;7.50;;;3.65;;
57217;SDS011;43078;52.972;6.482;2023-06-10T01:25:39;6.75;;;3.85;;
57217;SDS011;43078;52.972;6.482;2023-06-10T01:33:33;7.75;;;3.80;;
57217;SDS011;43078;52.972;6.482;2023-06-10T01:36:02;8.80;;;4.30;;
57217;SDS011;43078;52.972;6.482;2023-06-10T01:38:30;8.57;;;4.03;;
57217;SDS011;43078;52.972;6.482;2023-06-10T01:41:01;8.63;;;3.88;;
57217;SDS011;43078;52.972;6.482;2023-06-10T01:43:28;6.65;;;3.90;;
57217;SDS011;43078;52.972;6.482;2023-06-10T01:45:57;7.38;;;4.25;;
57217;SDS011;43078;52.972;6.482;2023-06-10T01:48:23;6.93;;;3.97;;
57217;SDS011;43078;52.972;6.482;2023-06-10T01:50:48;7.68;;;4.22;;
57217;SDS011;43078;52.972;6.482;2023-06-10T01:53:14;6.75;;;3.85;;
57217;SDS011;43078;52.972;6.482;2023-06-10T01:55:40;6.80;;;4.07;;
57217;SDS011;43078;52.972;6.482;2023-06-10T01:58:06;6.80;;;3.78;;
57217;SDS011;43078;52.972;6.482;2023-06-10T02:00:31;6.85;;;3.70;;
57217;SDS011;43078;52.972;6.482;2023-06-10T02:02:57;6.75;;;3.72;;
57217;SDS011;43078;52.972;6.482;2023-06-10T02:05:22;6.68;;;3.70;;
57217;SDS011;43078;52.972;6.482;2023-06-10T02:07:48;7.07;;;3.92;;
57217;SDS011;43078;52.972;6.482;2023-06-10T02:10:13;6.32;;;3.40;;
57217;SDS011;43078;52.972;6.482;2023-06-10T02:12:39;6.57;;;3.90;;
57217;SDS011;43078;52.972;6.482;2023-06-10T02:15:05;7.18;;;3.80;;
57217;SDS011;43078;52.972;6.482;2023-06-10T02:17:30;7.97;;;4.32;;
57217;SDS011;43078;52.972;6.482;2023-06-10T02:19:57;7.40;;;4.05;;
57217;SDS011;43078;52.972;6.482;2023-06-10T02:22:24;8.45;;;4.00;;
57217;SDS011;43078;52.972;6.482;2023-06-10T02:24:50;8.00;;;3.97;;
57217;SDS011;43078;52.972;6.482;2023-06-10T02:27:16;6.65;;;3.90;;
57217;SDS011;43078;52.972;6.482;2023-06-10T02:29:43;6.93;;;3.72;;
57217;SDS011;43078;52.972;6.482;2023-06-10T02:32:08;8.25;;;4.15;;
57217;SDS011;43078;52.972;6.482;2023-06-10T02:34:34;7.82;;;3.95;;
57217;SDS011;43078;52.972;6.482;2023-06-10T02:37:01;8.15;;;4.43;;
57217;SDS011;43078;52.972;6.482;2023-06-10T02:39:27;7.80;;;4.50;;
57217;SDS011;43078;52.972;6.482;2023-06-10T02:41:53;7.05;;;3.70;;
57217;SDS011;43078;52.972;6.482;2023-06-10T02:44:19;9.57;;;4.00;;
57217;SDS011;43078;52.972;6.482;2023-06-10T02:46:45;7.05;;;3.80;;
57217;SDS011;43078;52.972;6.482;2023-06-10T02:49:11;7.50;;;4.03;;
57217;SDS011;43078;52.972;6.482;2023-06-10T02:51:37;7.43;;;3.85;;
57217;SDS011;43078;52.972;6.482;2023-06-10T02:54:03;7.18;;;4.07;;
57217;SDS011;43078;52.972;6.482;2023-06-10T02:56:29;8.02;;;4.05;;
57217;SDS011;43078;52.972;6.482;2023-06-10T02:58:56;7.30;;;3.75;;
57217;SDS011;43078;52.972;6.482;2023-06-10T03:01:22;7.65;;;4.20;;
57217;SDS011;43078;52.972;6.482;2023-06-10T03:03:48;8.10;;;4.15;;
57217;SDS011;43078;52.972;6.482;2023-06-10T03:06:15;7.85;;;4.13;;
57217;SDS011;43078;52.972;6.482;2023-06-10T03:08:41;7.60;;;4.00;;
57217;SDS011;43078;52.972;6.482;2023-06-10T03:11:07;8.35;;;3.97;;
57217;SDS011;43078;52.972;6.482;2023-06-10T03:13:33;6.00;;;3.58;;
57217;SDS011;43078;52.972;6.482;2023-06-10T03:15:59;6.75;;;3.92;;
57217;SDS011;43078;52.972;6.482;2023-06-10T03:18:27;7.30;;;4.00;;
57217;SDS011;43078;52.972;6.482;2023-06-10T03:20:56;6.75;;;3.80;;
57217;SDS011;43078;52.972;6.482;2023-06-10T03:23:22;7.32;;;3.88;;
57217;SDS011;43078;52.972;6.482;2023-06-10T03:25:48;8.70;;;4.25;;
57217;SDS011;43078;52.972;6.482;2023-06-10T03:28:14;8.82;;;4.00;;
57217;SDS011;43078;52.972;6.482;2023-06-10T03:30:40;8.30;;;4.10;;
57217;SDS011;43078;52.972;6.482;2023-06-10T03:33:05;6.47;;;3.70;;
57217;SDS011;43078;52.972;6.482;2023-06-10T03:35:31;8.43;;;3.70;;
57217;SDS011;43078;52.972;6.482;2023-06-10T03:37:57;7.47;;;4.03;;
57217;SDS011;43078;52.972;6.482;2023-06-10T03:40:23;9.30;;;3.95;;
57217;SDS011;43078;52.972;6.482;2023-06-10T03:42:49;8.75;;;3.90;;
57217;SDS011;43078;52.972;6.482;2023-06-10T03:45:15;10.20;;;4.35;;
57217;SDS011;43078;52.972;6.482;2023-06-10T03:47:41;8.63;;;4.03;;
57217;SDS011;43078;52.972;6.482;2023-06-10T03:50:08;6.60;;;3.60;;
57217;SDS011;43078;52.972;6.482;2023-06-10T03:52:35;8.27;;;3.80;;
57217;SDS011;43078;52.972;6.482;2023-06-10T03:55:01;9.90;;;3.75;;
57217;SDS011;43078;52.972;6.482;2023-06-10T03:57:27;6.50;;;3.95;;
57217;SDS011;43078;52.972;6.482;2023-06-10T03:59:53;8.00;;;4.00;;
57217;SDS011;43078;52.972;6.482;2023-06-10T04:02:19;8.88;;;4.25;;
57217;SDS011;43078;52.972;6.482;2023-06-10T04:04:44;9.30;;;4.00;;
57217;SDS011;43078;52.972;6.482;2023-06-10T04:07:10;7.68;;;3.70;;
57217;SDS011;43078;52.972;6.482;2023-06-10T04:09:36;7.28;;;3.75;;
57217;SDS011;43078;52.972;6.482;2023-06-10T04:12:02;7.45;;;3.22;;
57217;SDS011;43078;52.972;6.482;2023-06-10T04:14:31;7.00;;;3.65;;
57217;SDS011;43078;52.972;6.482;2023-06-10T04:16:56;7.47;;;3.70;;
57217;SDS011;43078;52.972;6.482;2023-06-10T04:19:22;8.57;;;3.90;;
57217;SDS011;43078;52.972;6.482;2023-06-10T04:21:47;7.32;;;3.80;;
57217;SDS011;43078;52.972;6.482;2023-06-10T04:24:13;8.30;;;3.92;;
57217;SDS011;43078;52.972;6.482;2023-06-10T04:26:39;9.82;;;4.20;;
57217;SDS011;43078;52.972;6.482;2023-06-10T04:29:04;7.22;;;3.80;;
57217;SDS011;43078;52.972;6.482;2023-06-10T04:31:30;8.38;;;3.90;;
57217;SDS011;43078;52.972;6.482;2023-06-10T04:33:57;9.10;;;4.20;;
57217;SDS011;43078;52.972;6.482;2023-06-10T04:36:23;7.53;;;3.88;;
57217;SDS011;43078;52.972;6.482;2023-06-10T04:38:49;7.75;;;3.80;;
57217;SDS011;43078;52.972;6.482;2023-06-10T04:41:17;10.00;;;3.92;;
57217;SDS011;43078;52.972;6.482;2023-06-10T04:43:43;7.00;;;3.60;;
57217;SDS011;43078;52.972;6.482;2023-06-10T04:46:08;9.02;;;3.97;;
57217;SDS011;43078;52.972;6.482;2023-06-10T04:48:35;8.57;;;3.90;;
57217;SDS011;43078;52.972;6.482;2023-06-10T04:51:01;7.72;;;4.10;;
57217;SDS011;43078;52.972;6.482;2023-06-10T04:53:26;9.38;;;4.00;;
57217;SDS011;43078;52.972;6.482;2023-06-10T04:55:53;7.40;;;3.97;;
57217;SDS011;43078;52.972;6.482;2023-06-10T04:58:19;9.63;;;3.80;;
57217;SDS011;43078;52.972;6.482;2023-06-10T05:00:45;7.57;;;3.70;;
57217;SDS011;43078;52.972;6.482;2023-06-10T05:03:10;8.20;;;4.10;;
57217;SDS011;43078;52.972;6.482;2023-06-10T05:05:36;9.82;;;4.18;;
57217;SDS011;43078;52.972;6.482;2023-06-10T05:08:01;11.38;;;4.30;;
57217;SDS011;43078;52.972;6.482;2023-06-10T05:10:27;9.38;;;4.10;;
57217;SDS011;43078;52.972;6.482;2023-06-10T05:12:56;8.00;;;3.78;;
57217;SDS011;43078;52.972;6.482;2023-06-10T05:15:22;6.75;;;3.70;;
57217;SDS011;43078;52.972;6.482;2023-06-10T05:17:48;7.05;;;3.53;;
57217;SDS011;43078;52.972;6.482;2023-06-10T05:20:14;8.60;;;3.90;;
57217;SDS011;43078;52.972;6.482;2023-06-10T05:22:40;8.10;;;4.10;;
57217;SDS011;43078;52.972;6.482;2023-06-10T05:25:05;11.13;;;4.78;;
57217;SDS011;43078;52.972;6.482;2023-06-10T05:27:31;8.35;;;4.05;;
57217;SDS011;43078;52.972;6.482;2023-06-10T05:29:57;9.23;;;3.95;;
57217;SDS011;43078;52.972;6.482;2023-06-10T05:32:23;8.45;;;3.75;;
57217;SDS011;43078;52.972;6.482;2023-06-10T05:34:48;7.80;;;3.70;;
57217;SDS011;43078;52.972;6.482;2023-06-10T05:37:14;7.88;;;4.28;;
57217;SDS011;43078;52.972;6.482;2023-06-10T05:39:40;8.75;;;3.75;;
57217;SDS011;43078;52.972;6.482;2023-06-10T05:42:06;7.65;;;4.13;;
57217;SDS011;43078;52.972;6.482;2023-06-10T05:44:32;8.23;;;3.92;;
57217;SDS011;43078;52.972;6.482;2023-06-10T05:46:58;10.55;;;4.45;;
57217;SDS011;43078;52.972;6.482;2023-06-10T05:49:24;7.50;;;3.80;;
57217;SDS011;43078;52.972;6.482;2023-06-10T05:51:50;8.10;;;3.65;;
57217;SDS011;43078;52.972;6.482;2023-06-10T05:54:17;8.40;;;3.80;;
57217;SDS011;43078;52.972;6.482;2023-06-10T05:56:43;9.27;;;3.65;;
57217;SDS011;43078;52.972;6.482;2023-06-10T05:59:09;8.07;;;3.83;;
57217;SDS011;43078;52.972;6.482;2023-06-10T06:01:34;13.73;;;4.53;;
57217;SDS011;43078;52.972;6.482;2023-06-10T06:04:00;7.32;;;3.85;;
57217;SDS011;43078;52.972;6.482;2023-06-10T06:06:26;8.07;;;3.63;;
57217;SDS011;43078;52.972;6.482;2023-06-10T06:08:51;7.53;;;3.72;;
57217;SDS011;43078;52.972;6.482;2023-06-10T06:11:17;7.70;;;3.70;;
57217;SDS011;43078;52.972;6.482;2023-06-10T06:13:42;9.90;;;4.25;;
57217;SDS011;43078;52.972;6.482;2023-06-10T06:16:08;10.35;;;4.00;;
57217;SDS011;43078;52.972;6.482;2023-06-10T06:18:34;7.60;;;4.00;;
57217;SDS011;43078;52.972;6.482;2023-06-10T06:20:59;9.18;;;3.97;;
57217;SDS011;43078;52.972;6.482;2023-06-10T06:23:25;7.45;;;3.42;;
57217;SDS011;43078;52.972;6.482;2023-06-10T06:25:51;8.38;;;4.13;;
57217;SDS011;43078;52.972;6.482;2023-06-10T06:28:16;9.07;;;3.80;;
57217;SDS011;43078;52.972;6.482;2023-06-10T06:30:43;8.05;;;3.75;;
57217;SDS011;43078;52.972;6.482;2023-06-10T06:33:09;9.18;;;3.75;;
57217;SDS011;43078;52.972;6.482;2023-06-10T06:35:35;7.75;;;3.70;;
57217;SDS011;43078;52.972;6.482;2023-06-10T06:38:01;8.32;;;3.78;;
57217;SDS011;43078;52.972;6.482;2023-06-10T06:40:26;9.43;;;3.72;;
57217;SDS011;43078;52.972;6.482;2023-06-10T06:42:52;10.50;;;4.50;;
57217;SDS011;43078;52.972;6.482;2023-06-10T06:45:17;11.27;;;4.35;;
57217;SDS011;43078;52.972;6.482;2023-06-10T06:47:43;6.70;;;3.47;;
57217;SDS011;43078;52.972;6.482;2023-06-10T06:50:09;8.18;;;3.60;;
57217;SDS011;43078;52.972;6.482;2023-06-10T06:52:35;8.63;;;3.83;;
57217;SDS011;43078;52.972;6.482;2023-06-10T06:55:00;8.25;;;3.65;;
57217;SDS011;43078;52.972;6.482;2023-06-10T06:57:26;8.68;;;4.07;;
57217;SDS011;43078;52.972;6.482;2023-06-10T06:59:51;8.10;;;3.40;;
57217;SDS011;43078;52.972;6.482;2023-06-10T07:02:17;8.27;;;3.97;;
57217;SDS011;43078;52.972;6.482;2023-06-10T07:04:44;9.52;;;3.95;;
57217;SDS011;43078;52.972;6.482;2023-06-10T07:07:10;7.35;;;3.75;;
57217;SDS011;43078;52.972;6.482;2023-06-10T07:09:37;10.85;;;4.78;;
57217;SDS011;43078;52.972;6.482;2023-06-10T07:12:03;9.93;;;4.07;;
57217;SDS011;43078;52.972;6.482;2023-06-10T07:14:30;8.10;;;3.40;;
57217;SDS011;43078;52.972;6.482;2023-06-10T07:16:56;9.43;;;3.67;;
57217;SDS011;43078;52.972;6.482;2023-06-10T07:19:21;9.02;;;4.10;;
57217;SDS011;43078;52.972;6.482;2023-06-10T07:21:47;11.23;;;4.10;;
57217;SDS011;43078;52.972;6.482;2023-06-10T07:24:13;7.30;;;3.50;;
57217;SDS011;43078;52.972;6.482;2023-06-10T07:26:38;5.82;;;3.33;;
57217;SDS011;43078;52.972;6.482;2023-06-10T07:29:04;11.70;;;3.97;;
57217;SDS011;43078;52.972;6.482;2023-06-10T07:31:29;10.93;;;4.55;;
57217;SDS011;43078;52.972;6.482;2023-06-10T07:33:55;9.30;;;3.70;;
57217;SDS011;43078;52.972;6.482;2023-06-10T07:36:21;8.10;;;3.25;;
57217;SDS011;43078;52.972;6.482;2023-06-10T07:38:46;8.00;;;3.88;;
57217;SDS011;43078;52.972;6.482;2023-06-10T07:41:12;10.93;;;4.70;;
57217;SDS011;43078;52.972;6.482;2023-06-10T07:43:39;9.27;;;4.10;;
57217;SDS011;43078;52.972;6.482;2023-06-10T07:46:05;6.88;;;3.53;;
57217;SDS011;43078;52.972;6.482;2023-06-10T07:48:30;8.40;;;3.80;;
57217;SDS011;43078;52.972;6.482;2023-06-10T07:50:56;11.88;;;3.75;;
57217;SDS011;43078;52.972;6.482;2023-06-10T07:53:22;11.27;;;4.25;;
57217;SDS011;43078;52.972;6.482;2023-06-10T07:55:47;10.25;;;4.07;;
57217;SDS011;43078;52.972;6.482;2023-06-10T07:58:13;9.52;;;3.35;;
57217;SDS011;43078;52.972;6.482;2023-06-10T08:00:38;7.50;;;3.70;;
57217;SDS011;43078;52.972;6.482;2023-06-10T08:03:04;8.68;;;4.10;;
57217;SDS011;43078;52.972;6.482;2023-06-10T08:05:30;9.55;;;3.90;;
57217;SDS011;43078;52.972;6.482;2023-06-10T08:07:55;8.27;;;3.70;;
57217;SDS011;43078;52.972;6.482;2023-06-10T08:10:21;8.80;;;3.78;;
57217;SDS011;43078;52.972;6.482;2023-06-10T08:12:46;7.75;;;3.22;;
57217;SDS011;43078;52.972;6.482;2023-06-10T08:15:12;7.53;;;3.35;;
57217;SDS011;43078;52.972;6.482;2023-06-10T08:17:38;8.48;;;3.22;;
57217;SDS011;43078;52.972;6.482;2023-06-10T08:20:04;8.25;;;3.30;;
57217;SDS011;43078;52.972;6.482;2023-06-10T08:22:31;9.57;;;3.35;;
57217;SDS011;43078;52.972;6.482;2023-06-10T08:24:57;8.60;;;3.55;;
57217;SDS011;43078;52.972;6.482;2023-06-10T08:27:23;7.28;;;3.28;;
57217;SDS011;43078;52.972;6.482;2023-06-10T08:29:49;7.25;;;2.90;;
57217;SDS011;43078;52.972;6.482;2023-06-10T08:32:14;9.90;;;4.07;;
57217;SDS011;43078;52.972;6.482;2023-06-10T08:34:40;8.35;;;3.75;;
57217;SDS011;43078;52.972;6.482;2023-06-10T08:37:06;6.90;;;3.45;;
57217;SDS011;43078;52.972;6.482;2023-06-10T08:39:31;8.18;;;3.55;;
57217;SDS011;43078;52.972;6.482;2023-06-10T08:44:35;9.45;;;3.47;;
57217;SDS011;43078;52.972;6.482;2023-06-10T08:47:13;8.18;;;3.50;;
57217;SDS011;43078;52.972;6.482;2023-06-10T08:49:43;19.40;;;4.32;;
57217;SDS011;43078;52.972;6.482;2023-06-10T08:52:14;8.73;;;3.22;;
57217;SDS011;43078;52.972;6.482;2023-06-10T08:54:42;8.02;;;3.35;;
57217;SDS011;43078;52.972;6.482;2023-06-10T08:57:15;6.10;;;3.20;;
57217;SDS011;43078;52.972;6.482;2023-06-10T08:59:45;8.27;;;3.25;;
57217;SDS011;43078;52.972;6.482;2023-06-10T09:02:11;8.65;;;3.80;;
57217;SDS011;43078;52.972;6.482;2023-06-10T09:04:38;9.05;;;3.70;;
57217;SDS011;43078;52.972;6.482;2023-06-10T09:07:04;7.65;;;3.60;;
57217;SDS011;43078;52.972;6.482;2023-06-10T09:09:30;8.55;;;3.45;;
57217;SDS011;43078;52.972;6.482;2023-06-10T09:11:57;7.00;;;3.45;;
57217;SDS011;43078;52.972;6.482;2023-06-10T09:14:23;7.10;;;2.83;;
57217;SDS011;43078;52.972;6.482;2023-06-10T09:16:50;7.10;;;3.05;;
57217;SDS011;43078;52.972;6.482;2023-06-10T09:19:16;7.82;;;3.42;;
57217;SDS011;43078;52.972;6.482;2023-06-10T09:21:46;8.23;;;3.30;;
57217;SDS011;43078;52.972;6.482;2023-06-10T09:24:11;8.55;;;3.10;;
57217;SDS011;43078;52.972;6.482;2023-06-10T09:26:37;6.75;;;3.30;;
57217;SDS011;43078;52.972;6.482;2023-06-10T09:29:06;8.60;;;3.13;;
57217;SDS011;43078;52.972;6.482;2023-06-10T09:31:35;7.93;;;3.03;;
57217;SDS011;43078;52.972;6.482;2023-06-10T09:34:34;6.35;;;3.13;;
57217;SDS011;43078;52.972;6.482;2023-06-10T09:36:53;6.22;;;3.10;;
57217;SDS011;43078;52.972;6.482;2023-06-10T09:39:19;5.53;;;2.85;;
57217;SDS011;43078;52.972;6.482;2023-06-10T09:41:46;5.82;;;2.90;;
57217;SDS011;43078;52.972;6.482;2023-06-10T09:44:21;7.25;;;2.78;;
57217;SDS011;43078;52.972;6.482;2023-06-10T09:46:50;7.00;;;3.10;;
57217;SDS011;43078;52.972;6.482;2023-06-10T09:49:19;10.35;;;3.47;;
57217;SDS011;43078;52.972;6.482;2023-06-10T09:51:54;9.70;;;3.53;;
57217;SDS011;43078;52.972;6.482;2023-06-10T09:54:20;10.40;;;3.60;;
57217;SDS011;43078;52.972;6.482;2023-06-10T09:56:50;9.50;;;3.22;;
57217;SDS011;43078;52.972;6.482;2023-06-10T09:59:29;7.25;;;2.95;;
57217;SDS011;43078;52.972;6.482;2023-06-10T10:01:59;7.57;;;3.20;;
57217;SDS011;43078;52.972;6.482;2023-06-10T10:04:25;10.20;;;3.30;;
57217;SDS011;43078;52.972;6.482;2023-06-10T10:06:52;11.68;;;3.70;;
57217;SDS011;43078;52.972;6.482;2023-06-10T10:09:17;6.75;;;3.40;;
57217;SDS011;43078;52.972;6.482;2023-06-10T10:11:43;8.25;;;3.17;;
57217;SDS011;43078;52.972;6.482;2023-06-10T10:14:09;9.18;;;3.03;;
57217;SDS011;43078;52.972;6.482;2023-06-10T10:16:36;7.88;;;3.28;;
57217;SDS011;43078;52.972;6.482;2023-06-10T10:19:07;7.03;;;3.15;;
57217;SDS011;43078;52.972;6.482;2023-06-10T10:21:42;7.70;;;3.20;;
57217;SDS011;43078;52.972;6.482;2023-06-10T10:24:14;6.18;;;2.80;;
57217;SDS011;43078;52.972;6.482;2023-06-10T10:26:42;8.25;;;2.97;;
57217;SDS011;43078;52.972;6.482;2023-06-10T10:29:22;7.32;;;3.13;;
57217;SDS011;43078;52.972;6.482;2023-06-10T10:31:52;8.60;;;3.00;;
57217;SDS011;43078;52.972;6.482;2023-06-10T10:34:21;6.00;;;2.90;;
57217;SDS011;43078;52.972;6.482;2023-06-10T10:36:52;8.13;;;2.80;;
57217;SDS011;43078;52.972;6.482;2023-06-10T10:39:17;5.53;;;2.88;;
57217;SDS011;43078;52.972;6.482;2023-06-10T10:41:43;7.80;;;2.88;;
57217;SDS011;43078;52.972;6.482;2023-06-10T10:44:10;7.00;;;2.65;;
57217;SDS011;43078;52.972;6.482;2023-06-10T10:46:58;4.78;;;2.67;;
57217;SDS011;43078;52.972;6.482;2023-06-10T10:49:27;6.43;;;3.10;;
57217;SDS011;43078;52.972;6.482;2023-06-10T10:54:32;5.82;;;2.78;;
57217;SDS011;43078;52.972;6.482;2023-06-10T10:59:57;5.57;;;2.70;;
57217;SDS011;43078;52.972;6.482;2023-06-10T11:02:33;6.18;;;3.10;;
57217;SDS011;43078;52.972;6.482;2023-06-10T11:05:01;6.70;;;2.92;;
57217;SDS011;43078;52.972;6.482;2023-06-10T11:07:29;7.88;;;2.70;;
57217;SDS011;43078;52.972;6.482;2023-06-10T11:10:06;5.57;;;2.78;;
57217;SDS011;43078;52.972;6.482;2023-06-10T11:15:11;6.80;;;3.08;;
57217;SDS011;43078;52.972;6.482;2023-06-10T11:17:37;6.10;;;2.90;;
57217;SDS011;43078;52.972;6.482;2023-06-10T11:23:07;5.93;;;2.60;;
57217;SDS011;43078;52.972;6.482;2023-06-10T11:25:39;8.32;;;2.67;;
57217;SDS011;43078;52.972;6.482;2023-06-10T11:28:18;6.43;;;2.67;;
57217;SDS011;43078;52.972;6.482;2023-06-10T11:30:44;6.07;;;2.53;;
57217;SDS011;43078;52.972;6.482;2023-06-10T11:33:13;6.47;;;2.58;;
57217;SDS011;43078;52.972;6.482;2023-06-10T11:35:41;6.60;;;2.60;;
57217;SDS011;43078;52.972;6.482;2023-06-10T11:38:08;4.55;;;2.40;;
57217;SDS011;43078;52.972;6.482;2023-06-10T11:40:34;4.95;;;2.22;;
57217;SDS011;43078;52.972;6.482;2023-06-10T11:43:01;5.75;;;2.55;;
57217;SDS011;43078;52.972;6.482;2023-06-10T11:45:29;5.00;;;2.30;;
57217;SDS011;43078;52.972;6.482;2023-06-10T11:47:55;4.22;;;2.42;;
57217;SDS011;43078;52.972;6.482;2023-06-10T11:50:29;4.90;;;2.45;;
57217;SDS011;43078;52.972;6.482;2023-06-10T11:52:58;5.75;;;2.45;;
57217;SDS011;43078;52.972;6.482;2023-06-10T11:55:25;4.32;;;2.28;;
57217;SDS011;43078;52.972;6.482;2023-06-10T11:57:51;5.47;;;2.47;;
57217;SDS011;43078;52.972;6.482;2023-06-10T12:00:22;5.60;;;2.20;;
57217;SDS011;43078;52.972;6.482;2023-06-10T12:02:56;4.75;;;2.40;;
57217;SDS011;43078;52.972;6.482;2023-06-10T12:05:22;6.15;;;2.40;;
57217;SDS011;43078;52.972;6.482;2023-06-10T12:07:48;6.97;;;2.67;;
57217;SDS011;43078;52.972;6.482;2023-06-10T12:10:13;7.00;;;2.65;;
57217;SDS011;43078;52.972;6.482;2023-06-10T12:12:41;4.88;;;2.50;;
57217;SDS011;43078;52.972;6.482;2023-06-10T12:15:06;6.05;;;2.60;;
57217;SDS011;43078;52.972;6.482;2023-06-10T12:19:59;5.03;;;2.40;;
57217;SDS011;43078;52.972;6.482;2023-06-10T12:22:26;5.10;;;2.38;;
57217;SDS011;43078;52.972;6.482;2023-06-10T12:25:01;4.82;;;2.50;;
57217;SDS011;43078;52.972;6.482;2023-06-10T12:27:28;7.53;;;2.50;;
57217;SDS011;43078;52.972;6.482;2023-06-10T12:29:55;4.07;;;2.20;;
57217;SDS011;43078;52.972;6.482;2023-06-10T12:32:41;4.75;;;2.28;;
57217;SDS011;43078;52.972;6.482;2023-06-10T12:35:09;4.57;;;2.30;;
57217;SDS011;43078;52.972;6.482;2023-06-10T12:37:43;5.32;;;2.50;;
57217;SDS011;43078;52.972;6.482;2023-06-10T12:40:28;4.40;;;2.30;;
57217;SDS011;43078;52.972;6.482;2023-06-10T12:42:56;5.53;;;2.33;;
57217;SDS011;43078;52.972;6.482;2023-06-10T12:45:26;4.07;;;2.10;;
57217;SDS011;43078;52.972;6.482;2023-06-10T12:50:43;5.97;;;2.50;;
57217;SDS011;43078;52.972;6.482;2023-06-10T12:53:09;6.70;;;2.15;;
57217;SDS011;43078;52.972;6.482;2023-06-10T12:55:38;5.72;;;2.63;;
57217;SDS011;43078;52.972;6.482;2023-06-10T12:58:04;7.80;;;2.60;;
57217;SDS011;43078;52.972;6.482;2023-06-10T13:00:30;7.80;;;2.28;;
57217;SDS011;43078;52.972;6.482;2023-06-10T13:02:56;6.13;;;2.20;;
57217;SDS011;43078;52.972;6.482;2023-06-10T13:05:25;5.13;;;2.17;;
57217;SDS011;43078;52.972;6.482;2023-06-10T13:07:50;5.00;;;2.20;;
57217;SDS011;43078;52.972;6.482;2023-06-10T13:10:16;5.80;;;2.47;;
57217;SDS011;43078;52.972;6.482;2023-06-10T13:12:42;5.55;;;2.30;;
57217;SDS011;43078;52.972;6.482;2023-06-10T13:15:08;5.00;;;2.00;;
57217;SDS011;43078;52.972;6.482;2023-06-10T13:17:34;4.40;;;2.20;;
57217;SDS011;43078;52.972;6.482;2023-06-10T13:20:02;5.47;;;2.08;;
57217;SDS011;43078;52.972;6.482;2023-06-10T13:22:29;4.38;;;2.30;;
57217;SDS011;43078;52.972;6.482;2023-06-10T13:24:57;3.78;;;2.00;;
57217;SDS011;43078;52.972;6.482;2023-06-10T13:27:26;6.75;;;2.40;;
57217;SDS011;43078;52.972;6.482;2023-06-10T13:29:52;5.00;;;1.90;;
57217;SDS011;43078;52.972;6.482;2023-06-10T13:32:18;4.57;;;2.35;;
57217;SDS011;43078;52.972;6.482;2023-06-10T13:34:43;5.55;;;2.22;;
57217;SDS011;43078;52.972;6.482;2023-06-10T13:37:09;5.65;;;2.42;;
57217;SDS011;43078;52.972;6.482;2023-06-10T13:39:35;8.05;;;2.22;;
57217;SDS011;43078;52.972;6.482;2023-06-10T13:42:01;4.90;;;2.17;;
57217;SDS011;43078;52.972;6.482;2023-06-10T13:44:26;5.07;;;2.45;;
57217;SDS011;43078;52.972;6.482;2023-06-10T13:46:55;6.10;;;2.30;;
57217;SDS011;43078;52.972;6.482;2023-06-10T13:49:21;4.78;;;2.20;;
57217;SDS011;43078;52.972;6.482;2023-06-10T13:51:47;4.88;;;2.00;;
57217;SDS011;43078;52.972;6.482;2023-06-10T13:54:13;5.75;;;2.20;;
57217;SDS011;43078;52.972;6.482;2023-06-10T13:56:40;6.25;;;2.20;;
57217;SDS011;43078;52.972;6.482;2023-06-10T13:59:06;6.07;;;2.30;;
57217;SDS011;43078;52.972;6.482;2023-06-10T14:01:32;6.22;;;2.53;;
57217;SDS011;43078;52.972;6.482;2023-06-10T14:03:58;7.10;;;2.70;;
57217;SDS011;43078;52.972;6.482;2023-06-10T14:06:24;5.07;;;2.40;;
57217;SDS011;43078;52.972;6.482;2023-06-10T14:08:49;5.15;;;2.20;;
57217;SDS011;43078;52.972;6.482;2023-06-10T14:11:15;6.10;;;2.85;;
57217;SDS011;43078;52.972;6.482;2023-06-10T14:13:40;5.40;;;2.13;;
57217;SDS011;43078;52.972;6.482;2023-06-10T14:16:06;6.78;;;2.67;;
57217;SDS011;43078;52.972;6.482;2023-06-10T14:18:32;6.05;;;2.30;;
57217;SDS011;43078;52.972;6.482;2023-06-10T14:20:57;6.00;;;2.40;;
57217;SDS011;43078;52.972;6.482;2023-06-10T14:23:23;4.22;;;2.30;;
57217;SDS011;43078;52.972;6.482;2023-06-10T14:25:52;5.53;;;2.35;;
57217;SDS011;43078;52.972;6.482;2023-06-10T14:28:17;6.35;;;2.58;;
57217;SDS011;43078;52.972;6.482;2023-06-10T14:30:43;5.47;;;2.40;;
57217;SDS011;43078;52.972;6.482;2023-06-10T14:33:08;5.40;;;2.40;;
57217;SDS011;43078;52.972;6.482;2023-06-10T14:35:34;4.40;;;2.38;;
57217;SDS011;43078;52.972;6.482;2023-06-10T14:38:00;6.70;;;2.30;;
57217;SDS011;43078;52.972;6.482;2023-06-10T14:40:25;5.28;;;2.30;;
57217;SDS011;43078;52.972;6.482;2023-06-10T14:42:53;6.03;;;2.22;;
57217;SDS011;43078;52.972;6.482;2023-06-10T14:45:22;5.22;;;2.00;;
57217;SDS011;43078;52.972;6.482;2023-06-10T14:47:48;5.00;;;2.30;;
57217;SDS011;43078;52.972;6.482;2023-06-10T14:50:13;5.57;;;2.33;;
57217;SDS011;43078;52.972;6.482;2023-06-10T14:52:39;7.60;;;2.53;;
57217;SDS011;43078;52.972;6.482;2023-06-10T14:55:05;5.22;;;2.20;;
57217;SDS011;43078;52.972;6.482;2023-06-10T14:57:31;4.00;;;2.00;;
57217;SDS011;43078;52.972;6.482;2023-06-10T14:59:57;5.85;;;2.17;;
57217;SDS011;43078;52.972;6.482;2023-06-10T15:02:22;5.28;;;2.60;;
57217;SDS011;43078;52.972;6.482;2023-06-10T15:04:48;6.50;;;2.58;;
57217;SDS011;43078;52.972;6.482;2023-06-10T15:07:14;6.20;;;2.50;;
57217;SDS011;43078;52.972;6.482;2023-06-10T15:09:40;7.07;;;2.72;;
57217;SDS011;43078;52.972;6.482;2023-06-10T15:12:07;8.82;;;2.88;;
57217;SDS011;43078;52.972;6.482;2023-06-10T15:14:33;6.32;;;2.53;;